Time;durP1;ratioP1;P1;durP2;ratioP2;P2;SDS_P1;SDS_P2;PMS_P1;PMS_P2;Temp;Humidity;BMP_temperature;BMP_pressure;BME280_temperature;BME280_humidity;BME280_pressure;Samples;Min_cycle;Max_cycle;Signal;HPM_P1;HPM_P2
2022/04/05 00:01:31;;;;;;;41.58;6.63;;;;;;;;;;4916663;29;20024;-64
2022/04/05 00:03:58;;;;;;;26.65;6.65;;;;;;;;;;4917047;29;20511;-64
2022/04/05 00:06:24;;;;;;;36.22;6.25;;;;;;;;;;4916561;29;20046;-64
2022/04/05 00:08:50;;;;;;;35.45;6.10;;;;;;;;;;4916684;29;20552;-64
2022/04/05 00:11:16;;;;;;;41.60;6.47;;;;;;;;;;4916992;29;20377;-64
2022/04/05 00:13:42;;;;;;;45.28;8.02;;;;;;;;;;4916625;29;20080;-63
2022/04/05 00:16:09;;;;;;;34.17;6.88;;;;;;;;;;4916471;29;20043;-64
2022/04/05 00:18:37;;;;;;;39.78;10.60;;;;;;;;;;4916150;29;20137;-64
2022/04/05 00:21:03;;;;;;;29.45;6.43;;;;;;;;;;4913556;29;20480;-64
2022/04/05 00:23:29;;;;;;;35.97;5.97;;;;;;;;;;4897512;29;20043;-64
2022/04/05 00:25:55;;;;;;;41.70;7.78;;;;;;;;;;4897679;29;20575;-64
2022/04/05 00:28:21;;;;;;;26.63;6.60;;;;;;;;;;4897766;29;20135;-64
2022/04/05 00:30:47;;;;;;;35.97;7.10;;;;;;;;;;4897302;29;20095;-64
2022/04/05 00:33:13;;;;;;;32.33;6.15;;;;;;;;;;4897265;29;20071;-64
2022/04/05 00:35:39;;;;;;;32.03;5.63;;;;;;;;;;4897228;29;20116;-64
2022/04/05 00:38:07;;;;;;;43.83;6.90;;;;;;;;;;4897634;29;20036;-64
2022/04/05 00:40:33;;;;;;;48.08;7.28;;;;;;;;;;4897096;29;20031;-64
2022/04/05 00:43:00;;;;;;;32.63;5.50;;;;;;;;;;4897439;29;20120;-64
2022/04/05 00:45:26;;;;;;;31.50;5.90;;;;;;;;;;4896960;29;20020;-64
2022/04/05 00:47:54;;;;;;;34.78;6.53;;;;;;;;;;4897235;29;20035;-64
2022/04/05 00:50:20;;;;;;;34.63;5.78;;;;;;;;;;4897356;29;20024;-64
2022/04/05 00:52:47;;;;;;;41.63;6.68;;;;;;;;;;4897009;29;20396;-64
2022/04/05 00:55:13;;;;;;;30.45;6.63;;;;;;;;;;4897424;29;20059;-64
2022/04/05 00:57:41;;;;;;;33.88;6.10;;;;;;;;;;4897014;29;20509;-64
2022/04/05 01:00:08;;;;;;;27.75;5.57;;;;;;;;;;4897101;29;20025;-64
2022/04/05 01:02:38;;;;;;;36.42;5.85;;;;;;;;;;4897109;29;20035;-64
2022/04/05 01:05:06;;;;;;;35.10;6.78;;;;;;;;;;4896891;29;20040;-64
2022/04/05 01:07:33;;;;;;;43.53;6.13;;;;;;;;;;4897172;29;20037;-64
2022/04/05 01:10:00;;;;;;;26.88;5.45;;;;;;;;;;4897150;29;20028;-64
2022/04/05 01:12:26;;;;;;;32.58;8.07;;;;;;;;;;4896896;29;20052;-64
2022/04/05 01:14:52;;;;;;;37.05;6.88;;;;;;;;;;4896563;29;20028;-64
2022/04/05 01:17:19;;;;;;;35.65;6.53;;;;;;;;;;4897071;29;20396;-64
2022/04/05 01:19:48;;;;;;;38.63;5.72;;;;;;;;;;4896885;29;20033;-64
2022/04/05 01:22:14;;;;;;;26.15;5.68;;;;;;;;;;4907642;29;20056;-64
2022/04/05 01:24:40;;;;;;;45.33;6.43;;;;;;;;;;4909454;29;20037;-64
2022/04/05 01:27:07;;;;;;;48.15;7.97;;;;;;;;;;4897281;29;20032;-64
2022/04/05 01:29:33;;;;;;;42.80;7.38;;;;;;;;;;4896933;29;20029;-64
2022/04/05 01:32:01;;;;;;;45.30;8.32;;;;;;;;;;4896809;29;20032;-64
2022/04/05 01:34:28;;;;;;;38.22;5.97;;;;;;;;;;4896856;29;20036;-64
2022/04/05 01:36:58;;;;;;;39.42;6.93;;;;;;;;;;4896580;29;20021;-64
2022/04/05 01:39:26;;;;;;;47.80;8.38;;;;;;;;;;4896781;29;20033;-64
2022/04/05 01:41:56;;;;;;;44.33;7.10;;;;;;;;;;4896347;29;20028;-64
2022/04/05 01:44:22;;;;;;;40.45;6.85;;;;;;;;;;4896707;29;20036;-64
2022/04/05 01:46:49;;;;;;;31.50;5.93;;;;;;;;;;4896733;29;20032;-64
2022/04/05 01:49:15;;;;;;;40.13;6.53;;;;;;;;;;4895875;29;20503;-64
2022/04/05 01:51:42;;;;;;;43.85;7.38;;;;;;;;;;4896715;29;20061;-64
2022/04/05 01:54:09;;;;;;;36.25;6.88;;;;;;;;;;4900090;29;20027;-64
2022/04/05 01:56:40;;;;;;;45.17;6.70;;;;;;;;;;4900130;29;20088;-64
2022/04/05 01:59:07;;;;;;;41.50;6.03;;;;;;;;;;4900217;29;20040;-64
2022/04/05 02:01:33;;;;;;;42.85;6.15;;;;;;;;;;4900377;29;20033;-64
2022/04/05 02:03:59;;;;;;;31.13;5.60;;;;;;;;;;4900161;29;20479;-64
2022/04/05 02:06:26;;;;;;;42.60;5.88;;;;;;;;;;4904073;29;20115;-64
2022/04/05 02:08:52;;;;;;;48.30;6.43;;;;;;;;;;4918840;29;20059;-64
2022/04/05 02:11:18;;;;;;;43.17;6.03;;;;;;;;;;4933295;29;20489;-64
2022/04/05 02:13:47;;;;;;;37.35;6.20;;;;;;;;;;4901752;29;20464;-64
2022/04/05 02:16:15;;;;;;;51.90;8.55;;;;;;;;;;4933516;29;20114;-64
2022/04/05 02:18:42;;;;;;;39.17;6.88;;;;;;;;;;4933133;29;20087;-64
2022/04/05 02:21:09;;;;;;;48.55;7.13;;;;;;;;;;4901184;29;20040;-64
2022/04/05 02:23:36;;;;;;;41.55;7.82;;;;;;;;;;4933083;29;20119;-64
2022/04/05 02:26:11;;;;;;;42.78;7.47;;;;;;;;;;4918312;29;20035;-64
2022/04/05 02:28:42;;;;;;;44.65;9.60;;;;;;;;;;4917308;29;20084;-64
2022/04/05 02:31:12;;;;;;;41.88;6.95;;;;;;;;;;4918434;29;20412;-64
2022/04/05 02:33:39;;;;;;;43.60;8.18;;;;;;;;;;4911166;29;20115;-64
2022/04/05 02:36:12;;;;;;;31.05;6.30;;;;;;;;;;4898580;29;20032;-64
2022/04/05 02:38:38;;;;;;;46.85;7.22;;;;;;;;;;4898562;29;20037;-64
2022/04/05 02:41:07;;;;;;;38.22;6.53;;;;;;;;;;4897953;29;20032;-66
2022/04/05 02:43:34;;;;;;;32.28;7.13;;;;;;;;;;4898216;29;20044;-66
2022/04/05 02:46:02;;;;;;;43.08;6.30;;;;;;;;;;4898158;29;20037;-66
2022/04/05 02:48:30;;;;;;;55.78;7.25;;;;;;;;;;4898029;29;20475;-66
2022/04/05 02:50:58;;;;;;;31.00;5.88;;;;;;;;;;4897824;29;20544;-66
2022/04/05 02:53:24;;;;;;;48.63;6.57;;;;;;;;;;4898100;29;20029;-66
2022/04/05 02:55:50;;;;;;;38.92;6.47;;;;;;;;;;4897683;29;20025;-67
2022/04/05 02:58:17;;;;;;;52.00;7.00;;;;;;;;;;4897999;29;20043;-67
2022/04/05 03:00:46;;;;;;;43.25;7.32;;;;;;;;;;4898166;29;20030;-66
2022/04/05 03:03:15;;;;;;;44.83;6.25;;;;;;;;;;4897665;29;20468;-66
2022/04/05 03:05:48;;;;;;;43.55;5.72;;;;;;;;;;4899525;29;20709;-66
2022/04/05 03:08:16;;;;;;;45.85;6.43;;;;;;;;;;4932449;29;20496;-66
2022/04/05 03:10:43;;;;;;;45.45;7.75;;;;;;;;;;4908279;29;20040;-66
2022/04/05 03:13:11;;;;;;;42.90;6.70;;;;;;;;;;4913415;29;20037;-66
2022/04/05 03:15:38;;;;;;;36.83;6.13;;;;;;;;;;4897860;29;20115;-66
2022/04/05 03:18:06;;;;;;;35.33;5.72;;;;;;;;;;4897552;29;20029;-66
2022/04/05 03:20:33;;;;;;;49.95;6.43;;;;;;;;;;4897558;29;20098;-66
2022/04/05 03:23:01;;;;;;;57.13;7.57;;;;;;;;;;4913925;29;20136;-66
2022/04/05 03:25:27;;;;;;;52.58;8.30;;;;;;;;;;4917296;29;20396;-66
2022/04/05 03:27:54;;;;;;;37.67;6.78;;;;;;;;;;4900438;29;20119;-66
2022/04/05 03:30:24;;;;;;;53.38;5.97;;;;;;;;;;4900782;29;20028;-66
2022/04/05 03:32:52;;;;;;;38.30;6.13;;;;;;;;;;4917466;29;20090;-66
2022/04/05 03:35:19;;;;;;;47.22;7.80;;;;;;;;;;4900417;29;20118;-66
2022/04/05 03:37:46;;;;;;;46.13;8.70;;;;;;;;;;4899657;29;20040;-66
2022/04/05 03:40:12;;;;;;;50.35;8.55;;;;;;;;;;4917441;29;20035;-66
2022/04/05 03:42:40;;;;;;;39.30;6.95;;;;;;;;;;4900510;29;20044;-66
2022/04/05 03:45:07;;;;;;;44.50;6.55;;;;;;;;;;4900118;29;20377;-66
2022/04/05 03:47:34;;;;;;;41.17;7.13;;;;;;;;;;4900138;29;20040;-66
2022/04/05 03:50:00;;;;;;;41.28;7.20;;;;;;;;;;4900122;29;20047;-66
2022/04/05 03:52:28;;;;;;;62.28;8.25;;;;;;;;;;4899776;29;20036;-66
2022/04/05 03:54:54;;;;;;;32.55;6.07;;;;;;;;;;4916984;29;20025;-66
2022/04/05 03:57:23;;;;;;;40.10;7.18;;;;;;;;;;4917288;29;20047;-66
2022/04/05 03:59:53;;;;;;;46.42;7.55;;;;;;;;;;4900538;29;20191;-66
2022/04/05 04:02:19;;;;;;;50.15;7.75;;;;;;;;;;4900070;29;20551;-66
2022/04/05 04:04:47;;;;;;;52.30;7.32;;;;;;;;;;4899939;29;20507;-66
2022/04/05 04:07:14;;;;;;;40.70;6.70;;;;;;;;;;4899366;29;20107;-66
2022/04/05 04:09:41;;;;;;;42.47;7.05;;;;;;;;;;4899785;29;20480;-66
2022/04/05 04:12:09;;;;;;;49.72;7.90;;;;;;;;;;4899735;29;20040;-66
2022/04/05 04:14:35;;;;;;;38.80;6.55;;;;;;;;;;4931114;29;20031;-66
2022/04/05 04:17:11;;;;;;;46.50;7.97;;;;;;;;;;4898782;29;20033;-66
2022/04/05 04:19:38;;;;;;;48.80;6.68;;;;;;;;;;4899582;29;20095;-66
2022/04/05 04:22:04;;;;;;;39.53;6.97;;;;;;;;;;4898678;29;20492;-66
2022/04/05 04:24:32;;;;;;;42.95;6.22;;;;;;;;;;4899706;29;20428;-66
2022/04/05 04:26:58;;;;;;;50.58;7.95;;;;;;;;;;4916454;29;20039;-66
2022/04/05 04:29:24;;;;;;;40.72;6.82;;;;;;;;;;4931246;29;20086;-66
2022/04/05 04:31:50;;;;;;;36.50;6.55;;;;;;;;;;4934326;29;20440;-66
2022/04/05 04:34:17;;;;;;;37.13;5.40;;;;;;;;;;4920153;29;20106;-66
2022/04/05 04:36:43;;;;;;;41.22;5.72;;;;;;;;;;4916246;29;20039;-66
2022/04/05 04:39:09;;;;;;;35.65;7.13;;;;;;;;;;4916807;29;20503;-66
2022/04/05 04:41:36;;;;;;;28.23;5.07;;;;;;;;;;4916306;29;20028;-67
2022/04/05 04:44:02;;;;;;;43.85;7.72;;;;;;;;;;4913423;29;20044;-67
2022/04/05 04:46:28;;;;;;;33.42;5.97;;;;;;;;;;4915255;29;20043;-67
2022/04/05 04:48:54;;;;;;;38.08;7.60;;;;;;;;;;4919120;29;20119;-67
2022/04/05 04:51:20;;;;;;;43.17;7.40;;;;;;;;;;4914232;29;20024;-67
2022/04/05 04:53:46;;;;;;;42.72;6.82;;;;;;;;;;4915579;29;20028;-67
2022/04/05 04:56:12;;;;;;;34.45;6.03;;;;;;;;;;4915435;29;20031;-68
2022/04/05 04:58:39;;;;;;;47.60;6.00;;;;;;;;;;4921656;29;20027;-68
2022/04/05 05:01:05;;;;;;;32.95;6.57;;;;;;;;;;4917242;29;20024;-68
2022/04/05 05:03:31;;;;;;;43.22;6.00;;;;;;;;;;4911866;29;20078;-67
2022/04/05 05:05:58;;;;;;;31.98;6.05;;;;;;;;;;4914468;29;20036;-67
2022/04/05 05:08:24;;;;;;;44.13;7.38;;;;;;;;;;4915792;29;20127;-67
2022/04/05 05:10:51;;;;;;;22.40;4.85;;;;;;;;;;4915092;29;20511;-67
2022/04/05 05:13:20;;;;;;;32.53;5.80;;;;;;;;;;4920123;29;20547;-67
2022/04/05 05:15:47;;;;;;;42.42;6.85;;;;;;;;;;4915029;29;20063;-67
2022/04/05 05:18:13;;;;;;;25.77;5.95;;;;;;;;;;4915246;29;20056;-67
2022/04/05 05:20:39;;;;;;;38.78;6.22;;;;;;;;;;4918057;29;20365;-67
2022/04/05 05:23:06;;;;;;;27.85;6.82;;;;;;;;;;4915248;29;20060;-67
2022/04/05 05:25:32;;;;;;;36.58;5.30;;;;;;;;;;4915314;29;20040;-67
2022/04/05 05:27:58;;;;;;;27.17;4.72;;;;;;;;;;4921925;29;20036;-67
2022/04/05 05:30:24;;;;;;;33.15;5.57;;;;;;;;;;4920504;29;20492;-67
2022/04/05 05:32:51;;;;;;;36.88;6.22;;;;;;;;;;4930825;29;20028;-68
2022/04/05 05:35:18;;;;;;;34.85;5.38;;;;;;;;;;4931766;29;20059;-67
2022/04/05 05:37:44;;;;;;;41.35;6.28;;;;;;;;;;4929166;29;20471;-66
2022/04/05 05:40:11;;;;;;;36.17;6.45;;;;;;;;;;4919899;29;20068;-66
2022/04/05 05:43:01;;;;;;;45.80;6.13;;;;;;;;;;4921702;29;20088;-67
2022/04/05 05:45:28;;;;;;;28.40;4.90;;;;;;;;;;4915973;29;20543;-67
2022/04/05 05:47:55;;;;;;;33.67;5.93;;;;;;;;;;4917322;29;20083;-67
2022/04/05 05:50:21;;;;;;;26.58;6.28;;;;;;;;;;4913541;29;20807;-67
2022/04/05 05:52:47;;;;;;;30.08;6.03;;;;;;;;;;4913992;29;20488;-67
2022/04/05 05:55:15;;;;;;;27.23;5.38;;;;;;;;;;4916960;29;20020;-67
2022/04/05 05:57:41;;;;;;;34.22;5.30;;;;;;;;;;4917506;29;21111;-67
2022/04/05 06:00:11;;;;;;;28.45;5.30;;;;;;;;;;4918156;29;20028;-67
2022/04/05 06:02:41;;;;;;;19.70;4.65;;;;;;;;;;4930165;29;20032;-67
2022/04/05 06:05:07;;;;;;;18.90;3.97;;;;;;;;;;4916191;29;20032;-67
2022/04/05 06:07:34;;;;;;;27.25;4.82;;;;;;;;;;4916892;29;20028;-67
2022/04/05 06:10:07;;;;;;;20.85;4.30;;;;;;;;;;4921562;29;20503;-67
2022/04/05 06:12:33;;;;;;;;;;;;;;;;;;4912830;29;20028;-67
2022/04/05 06:14:59;;;;;;;20.25;6.05;;;;;;;;;;4914015;29;19911;-67
2022/04/05 06:17:25;;;;;;;13.80;3.47;;;;;;;;;;4915911;29;20035;-67
2022/04/05 06:19:52;;;;;;;25.13;4.45;;;;;;;;;;4913931;29;20036;-67
2022/04/05 06:22:18;;;;;;;17.05;4.10;;;;;;;;;;4915319;29;20044;-67
2022/04/05 06:24:46;;;;;;;18.95;3.88;;;;;;;;;;4914794;29;20100;-67
2022/04/05 06:27:12;;;;;;;20.10;4.30;;;;;;;;;;4915829;29;20024;-67
2022/04/05 06:29:38;;;;;;;17.88;4.38;;;;;;;;;;4915130;29;20036;-67
2022/04/05 06:32:05;;;;;;;23.90;4.35;;;;;;;;;;4914820;29;20047;-67
2022/04/05 06:34:31;;;;;;;15.43;4.05;;;;;;;;;;4916357;29;20534;-67
2022/04/05 06:36:58;;;;;;;23.38;5.20;;;;;;;;;;4915559;29;20039;-67
2022/04/05 06:39:25;;;;;;;17.88;4.55;;;;;;;;;;4919197;29;20035;-67
2022/04/05 06:41:52;;;;;;;22.67;4.68;;;;;;;;;;4919776;29;20042;-67
2022/04/05 06:44:19;;;;;;;21.98;4.72;;;;;;;;;;4918153;29;20076;-67
2022/04/05 06:46:45;;;;;;;29.17;6.85;;;;;;;;;;4916475;29;20087;-67
2022/04/05 06:49:11;;;;;;;22.33;4.57;;;;;;;;;;4921909;29;20369;-67
2022/04/05 06:51:37;;;;;;;10.95;3.90;;;;;;;;;;4918895;29;20036;-67
2022/04/05 06:54:05;;;;;;;22.63;5.18;;;;;;;;;;4917039;29;20028;-67
2022/04/05 06:56:31;;;;;;;24.02;5.13;;;;;;;;;;4922199;29;20189;-67
2022/04/05 06:58:57;;;;;;;23.33;4.45;;;;;;;;;;4919162;29;20031;-67
2022/04/05 07:01:23;;;;;;;25.63;6.40;;;;;;;;;;4914040;29;20072;-67
2022/04/05 07:03:50;;;;;;;16.60;4.43;;;;;;;;;;4915597;29;20040;-67
2022/04/05 07:06:16;;;;;;;21.23;4.35;;;;;;;;;;4916106;29;20496;-67
2022/04/05 07:08:42;;;;;;;15.13;3.70;;;;;;;;;;4914332;29;20035;-67
2022/04/05 07:11:08;;;;;;;24.00;4.78;;;;;;;;;;4921038;29;20020;-67
2022/04/05 07:13:34;;;;;;;24.00;4.50;;;;;;;;;;4919888;29;20118;-67
2022/04/05 07:16:01;;;;;;;17.88;4.43;;;;;;;;;;4916192;29;20484;-67
2022/04/05 07:18:28;;;;;;;14.98;4.70;;;;;;;;;;4916042;29;20119;-66
2022/04/05 07:20:54;;;;;;;15.68;3.88;;;;;;;;;;4916402;29;20048;-67
2022/04/05 07:23:20;;;;;;;13.75;3.45;;;;;;;;;;4912102;29;20494;-67
2022/04/05 07:25:46;;;;;;;18.15;3.90;;;;;;;;;;4914300;29;20107;-67
2022/04/05 07:28:12;;;;;;;21.15;3.65;;;;;;;;;;4915503;29;20111;-67
2022/04/05 07:30:38;;;;;;;15.45;3.58;;;;;;;;;;4910945;29;20072;-67
2022/04/05 07:33:04;;;;;;;18.58;4.00;;;;;;;;;;4913653;29;20115;-67
2022/04/05 07:35:30;;;;;;;24.80;4.85;;;;;;;;;;4916313;29;20036;-67
2022/04/05 07:37:57;;;;;;;15.75;4.47;;;;;;;;;;4915964;29;20043;-67
2022/04/05 07:40:25;;;;;;;20.33;3.90;;;;;;;;;;4916273;29;20036;-67
2022/04/05 07:42:51;;;;;;;14.77;3.45;;;;;;;;;;4914740;29;20064;-66
2022/04/05 07:45:17;;;;;;;20.70;3.90;;;;;;;;;;4916096;29;20075;-66
2022/04/05 07:47:44;;;;;;;14.98;3.60;;;;;;;;;;4908757;29;20488;-67
2022/04/05 07:50:11;;;;;;;17.40;3.80;;;;;;;;;;4915090;29;20024;-67
2022/04/05 07:52:37;;;;;;;18.95;4.07;;;;;;;;;;4912150;29;20039;-67
2022/04/05 07:55:04;;;;;;;28.55;4.80;;;;;;;;;;4914994;29;20067;-67
2022/04/05 07:57:30;;;;;;;16.88;3.83;;;;;;;;;;4912627;29;20024;-67
2022/04/05 07:59:58;;;;;;;20.65;3.92;;;;;;;;;;4913522;29;20024;-67
2022/04/05 08:02:24;;;;;;;18.50;4.47;;;;;;;;;;4915738;29;20059;-67
2022/04/05 08:04:50;;;;;;;24.33;4.35;;;;;;;;;;4913545;29;20029;-67
2022/04/05 08:07:16;;;;;;;18.02;4.75;;;;;;;;;;4914039;29;20452;-67
2022/04/05 08:09:43;;;;;;;27.92;4.70;;;;;;;;;;4909832;29;20560;-67
2022/04/05 08:12:09;;;;;;;19.30;4.30;;;;;;;;;;4914932;29;20028;-67
2022/04/05 08:14:35;;;;;;;24.45;4.18;;;;;;;;;;4917487;29;20087;-67
2022/04/05 08:17:01;;;;;;;31.25;5.22;;;;;;;;;;4914074;29;20385;-67
2022/04/05 08:19:27;;;;;;;26.50;4.57;;;;;;;;;;4905412;29;20036;-67
2022/04/05 08:21:54;;;;;;;30.70;4.43;;;;;;;;;;4906776;29;20043;-67
2022/04/05 08:24:20;;;;;;;23.75;4.85;;;;;;;;;;4915669;29;20028;-67
2022/04/05 08:26:47;;;;;;;21.40;4.25;;;;;;;;;;4917742;29;20412;-67
2022/04/05 08:29:13;;;;;;;26.65;4.32;;;;;;;;;;4914440;29;20480;-67
2022/04/05 08:31:39;;;;;;;23.33;4.35;;;;;;;;;;4913370;29;20485;-67
2022/04/05 08:34:05;;;;;;;23.65;4.65;;;;;;;;;;4924375;29;20050;-67
2022/04/05 08:36:32;;;;;;;27.73;6.03;;;;;;;;;;4920718;29;20061;-67
2022/04/05 08:38:58;;;;;;;25.55;4.72;;;;;;;;;;4922277;29;20091;-67
2022/04/05 08:41:25;;;;;;;25.77;5.47;;;;;;;;;;4914674;29;20036;-67
2022/04/05 08:43:52;;;;;;;30.02;4.53;;;;;;;;;;4911993;29;20040;-67
2022/04/05 08:46:21;;;;;;;27.88;5.03;;;;;;;;;;4912102;29;20039;-67
2022/04/05 08:48:48;;;;;;;36.67;5.22;;;;;;;;;;4913998;29;20146;-67
2022/04/05 08:51:14;;;;;;;27.73;5.40;;;;;;;;;;4912313;29;20024;-66
2022/04/05 08:53:40;;;;;;;27.33;4.72;;;;;;;;;;4910508;29;20037;-66
2022/04/05 08:56:07;;;;;;;25.88;4.65;;;;;;;;;;4911369;29;20147;-66
2022/04/05 08:58:33;;;;;;;24.85;5.50;;;;;;;;;;4913626;29;20099;-66
2022/04/05 09:00:59;;;;;;;20.65;5.68;;;;;;;;;;4912846;29;20027;-67
2022/04/05 09:03:28;;;;;;;28.88;7.00;;;;;;;;;;4911059;29;20547;-67
2022/04/05 09:05:54;;;;;;;27.27;4.90;;;;;;;;;;4913297;29;20031;-67
2022/04/05 09:08:24;;;;;;;35.03;5.25;;;;;;;;;;4920057;29;20648;-67
2022/04/05 09:10:51;;;;;;;32.33;4.97;;;;;;;;;;4911212;29;20032;-67
2022/04/05 09:13:18;;;;;;;23.67;4.35;;;;;;;;;;4914159;29;20040;-67
2022/04/05 09:15:47;;;;;;;25.75;4.05;;;;;;;;;;4916904;29;20064;-66
2022/04/05 09:18:13;;;;;;;14.55;3.60;;;;;;;;;;4913399;29;20084;-66
2022/04/05 09:20:47;;;;;;;20.50;4.50;;;;;;;;;;4914647;29;20042;-66
2022/04/05 09:23:30;;;;;;;18.55;3.25;;;;;;;;;;4904755;29;20051;-66
2022/04/05 09:25:58;;;;;;;24.60;4.78;;;;;;;;;;4916389;29;20037;-66
2022/04/05 09:28:31;;;;;;;18.42;3.42;;;;;;;;;;4909176;29;20408;-66
2022/04/05 09:30:58;;;;;;;24.13;5.53;;;;;;;;;;4915421;29;20108;-66
2022/04/05 09:33:25;;;;;;;23.73;4.57;;;;;;;;;;4914009;29;20032;-66
2022/04/05 09:36:01;;;;;;;21.65;3.95;;;;;;;;;;4912882;29;20048;-66
2022/04/05 09:38:27;;;;;;;15.05;3.58;;;;;;;;;;4917938;29;20400;-66
2022/04/05 09:40:53;;;;;;;16.20;3.70;;;;;;;;;;4912320;29;20087;-66
2022/04/05 09:43:22;;;;;;;20.55;3.13;;;;;;;;;;4911712;29;20071;-66
2022/04/05 09:45:57;;;;;;;23.92;3.65;;;;;;;;;;4915337;29;20522;-66
2022/04/05 09:48:25;;;;;;;17.48;3.30;;;;;;;;;;4912845;29;20044;-66
2022/04/05 09:51:00;;;;;;;20.38;3.13;;;;;;;;;;4909878;29;20032;-66
2022/04/05 09:53:30;;;;;;;19.15;3.42;;;;;;;;;;4919955;29;20111;-66
2022/04/05 09:56:08;;;;;;;13.52;3.90;;;;;;;;;;4911818;29;20107;-66
2022/04/05 09:58:34;;;;;;;20.05;2.60;;;;;;;;;;4912679;29;20071;-66
2022/04/05 10:01:07;;;;;;;15.20;3.20;;;;;;;;;;4912074;29;20036;-66
2022/04/05 10:03:34;;;;;;;18.30;4.40;;;;;;;;;;4912129;29;20043;-67
2022/04/05 10:06:02;;;;;;;25.60;3.40;;;;;;;;;;4910793;29;20037;-67
2022/04/05 10:08:29;;;;;;;18.42;4.05;;;;;;;;;;4915075;29;20036;-67
2022/04/05 10:10:56;;;;;;;17.10;3.60;;;;;;;;;;4914214;29;20059;-67
2022/04/05 10:13:22;;;;;;;14.80;3.15;;;;;;;;;;4915901;29;20459;-67
2022/04/05 10:15:48;;;;;;;18.55;3.28;;;;;;;;;;4911534;29;20020;-67
2022/04/05 10:18:16;;;;;;;15.52;3.22;;;;;;;;;;4917167;29;20032;-67
2022/04/05 10:20:42;;;;;;;16.63;3.42;;;;;;;;;;4917781;29;20091;-67
2022/04/05 10:23:09;;;;;;;14.27;2.83;;;;;;;;;;4913608;29;20559;-68
2022/04/05 10:25:35;;;;;;;24.58;3.47;;;;;;;;;;4910486;29;20377;-68
2022/04/05 10:28:02;;;;;;;18.50;3.35;;;;;;;;;;4915789;29;20396;-68
2022/04/05 10:30:33;;;;;;;16.95;4.32;;;;;;;;;;4914868;29;20024;-68
2022/04/05 10:33:05;;;;;;;26.05;2.75;;;;;;;;;;4915569;29;20092;-68
2022/04/05 10:35:36;;;;;;;16.08;3.13;;;;;;;;;;4913269;29;20028;-68
2022/04/05 10:38:11;;;;;;;11.32;3.20;;;;;;;;;;4916643;29;20032;-68
2022/04/05 10:40:38;;;;;;;19.17;3.05;;;;;;;;;;4914195;29;20063;-68
2022/04/05 10:43:15;;;;;;;22.30;2.92;;;;;;;;;;4915561;29;20498;-68
2022/04/05 10:45:45;;;;;;;20.20;3.05;;;;;;;;;;4915512;29;20040;-68
2022/04/05 10:48:20;;;;;;;23.70;4.22;;;;;;;;;;4915670;29;20053;-68
2022/04/05 10:50:47;;;;;;;16.65;2.53;;;;;;;;;;4915539;29;20032;-68
2022/04/05 10:53:20;;;;;;;14.65;2.65;;;;;;;;;;4917861;29;20035;-68
2022/04/05 10:56:09;;;;;;;21.73;2.83;;;;;;;;;;4916909;29;20024;-68
2022/04/05 10:58:48;;;;;;;14.07;3.38;;;;;;;;;;4913163;29;20040;-68
2022/04/05 11:01:19;;;;;;;20.25;3.20;;;;;;;;;;4915507;29;20067;-68
2022/04/05 11:04:04;;;;;;;12.30;3.00;;;;;;;;;;4929269;29;20407;-68
2022/04/05 11:06:50;;;;;;;20.48;3.20;;;;;;;;;;4915028;29;20067;-68
2022/04/05 11:09:26;;;;;;;22.75;3.85;;;;;;;;;;4913475;29;20404;-68
2022/04/05 11:11:53;;;;;;;18.63;2.80;;;;;;;;;;4915089;29;20488;-68
2022/04/05 11:14:38;;;;;;;15.35;3.50;;;;;;;;;;4917586;29;20388;-68
2022/04/05 11:17:08;;;;;;;27.88;5.00;;;;;;;;;;4914265;29;20388;-68
2022/04/05 11:19:36;;;;;;;25.95;4.75;;;;;;;;;;4917305;29;20107;-68
2022/04/05 11:22:06;;;;;;;21.55;4.65;;;;;;;;;;4904308;29;20057;-68
2022/04/05 11:25:04;;;;;;;20.58;3.63;;;;;;;;;;4897753;29;20163;-67
2022/04/05 11:27:46;;;;;;;27.67;4.43;;;;;;;;;;4839699;29;20046;-68
2022/04/05 11:30:37;;;;;;;20.25;3.50;;;;;;;;;;4849256;29;20094;-68
2022/04/05 11:33:22;;;;;;;19.00;3.90;;;;;;;;;;4833068;29;20034;-68
2022/04/05 11:35:48;;;;;;;13.13;2.85;;;;;;;;;;4835467;29;20034;-68
2022/04/05 11:38:17;;;;;;;21.23;4.28;;;;;;;;;;4838230;29;20041;-68
2022/04/05 11:40:47;;;;;;;20.60;3.42;;;;;;;;;;4839250;29;20501;-68
2022/04/05 11:43:17;;;;;;;25.85;4.32;;;;;;;;;;4838447;29;20050;-68
2022/04/05 11:45:45;;;;;;;24.77;3.78;;;;;;;;;;4838946;29;20080;-68
2022/04/05 11:48:15;;;;;;;24.05;4.18;;;;;;;;;;4838476;29;20121;-68
2022/04/05 11:50:41;;;;;;;24.73;3.97;;;;;;;;;;4838402;29;20408;-68
2022/04/05 11:53:27;;;;;;;22.20;4.10;;;;;;;;;;4838689;29;20044;-68
2022/04/05 11:56:23;;;;;;;21.80;4.25;;;;;;;;;;4841082;29;20058;-68
2022/04/05 11:58:53;;;;;;;27.55;3.97;;;;;;;;;;4840738;29;20050;-68
2022/04/05 12:01:24;;;;;;;24.90;5.20;;;;;;;;;;4839950;29;20136;-68
2022/04/05 12:03:54;;;;;;;24.83;4.55;;;;;;;;;;4888844;29;20404;-68
2022/04/05 12:06:26;;;;;;;27.92;4.93;;;;;;;;;;4896397;29;20043;-68
2022/04/05 12:08:54;;;;;;;28.58;5.35;;;;;;;;;;4896052;29;20036;-68
2022/04/05 12:11:21;;;;;;;30.48;5.50;;;;;;;;;;4895927;29;20568;-67
2022/04/05 12:14:10;;;;;;;34.65;5.22;;;;;;;;;;4896940;29;20051;-68
2022/04/05 12:17:03;;;;;;;29.27;4.30;;;;;;;;;;4893369;29;20544;-68
2022/04/05 12:19:39;;;;;;;23.65;3.47;;;;;;;;;;4892830;29;20048;-68
2022/04/05 12:22:06;;;;;;;19.67;4.28;;;;;;;;;;4905233;29;20519;-68
2022/04/05 12:24:34;;;;;;;19.13;3.67;;;;;;;;;;4914800;29;20024;-68
2022/04/05 12:27:00;;;;;;;18.15;3.13;;;;;;;;;;4914435;29;20045;-68
2022/04/05 12:29:28;;;;;;;15.70;3.38;;;;;;;;;;4914995;29;20074;-68
2022/04/05 12:31:54;;;;;;;25.85;4.45;;;;;;;;;;4917301;29;20039;-68
2022/04/05 12:34:20;;;;;;;31.90;4.75;;;;;;;;;;4912905;29;20397;-68
2022/04/05 12:36:46;;;;;;;20.38;4.30;;;;;;;;;;4913591;29;20032;-68
2022/04/05 12:39:20;;;;;;;24.85;3.97;;;;;;;;;;4913878;29;20480;-68
2022/04/05 12:41:50;;;;;;;17.63;4.10;;;;;;;;;;4914287;29;20032;-68
2022/04/05 12:44:17;;;;;;;20.48;4.15;;;;;;;;;;4913636;29;20488;-68
2022/04/05 12:46:43;;;;;;;24.52;4.82;;;;;;;;;;4914080;29;20024;-68
2022/04/05 12:49:14;;;;;;;19.45;3.65;;;;;;;;;;4913829;29;20158;-68
2022/04/05 12:51:40;;;;;;;22.75;4.35;;;;;;;;;;4913836;29;20488;-68
2022/04/05 12:54:23;;;;;;;28.73;5.28;;;;;;;;;;4914178;29;20040;-68
2022/04/05 12:56:49;;;;;;;;;;;;;;;;;;4914332;29;20016;-68
2022/04/05 12:59:24;;;;;;;28.83;4.40;;;;;;;;;;4913878;29;19926;-68
2022/04/05 13:01:55;;;;;;;30.35;4.50;;;;;;;;;;4913833;29;20028;-68
2022/04/05 13:04:24;;;;;;;34.90;5.20;;;;;;;;;;4914384;29;20035;-68
2022/04/05 13:06:53;;;;;;;27.77;5.18;;;;;;;;;;4913952;29;20036;-68
2022/04/05 13:09:27;;;;;;;33.78;5.20;;;;;;;;;;4911806;29;20074;-68
2022/04/05 13:12:06;;;;;;;27.52;5.65;;;;;;;;;;4914080;29;20032;-68
2022/04/05 13:14:33;;;;;;;26.88;6.22;;;;;;;;;;4913840;29;20028;-68
2022/04/05 13:17:00;;;;;;;24.50;4.57;;;;;;;;;;4913350;29;20017;-67
2022/04/05 13:19:26;;;;;;;22.33;5.05;;;;;;;;;;4913079;29;20144;-67
2022/04/05 13:21:53;;;;;;;25.77;4.35;;;;;;;;;;4915883;29;20052;-67
2022/04/05 13:24:20;;;;;;;29.50;4.85;;;;;;;;;;4911959;29;20072;-67
2022/04/05 13:26:54;;;;;;;31.65;5.18;;;;;;;;;;4910931;29;20046;-67
2022/04/05 13:29:23;;;;;;;17.13;4.10;;;;;;;;;;4913750;29;20504;-67
2022/04/05 13:32:01;;;;;;;18.13;4.60;;;;;;;;;;4911418;29;20039;-68
2022/04/05 13:34:31;;;;;;;24.60;4.90;;;;;;;;;;4911088;29;20028;-68
2022/04/05 13:36:58;;;;;;;32.88;4.43;;;;;;;;;;4913398;29;20031;-68
2022/04/05 13:39:24;;;;;;;18.90;4.20;;;;;;;;;;4916468;29;20058;-68
2022/04/05 13:41:52;;;;;;;25.10;4.60;;;;;;;;;;4912520;29;20388;-67
2022/04/05 13:44:19;;;;;;;21.73;3.20;;;;;;;;;;4910252;29;20028;-67
2022/04/05 13:46:46;;;;;;;15.35;3.40;;;;;;;;;;4911841;29;20039;-67
2022/04/05 13:49:16;;;;;;;20.65;3.05;;;;;;;;;;4914514;29;20032;-67
2022/04/05 13:51:43;;;;;;;31.45;5.28;;;;;;;;;;4915229;29;20025;-67
2022/04/05 13:54:11;;;;;;;14.90;3.20;;;;;;;;;;4913926;29;20024;-67
2022/04/05 13:56:38;;;;;;;25.05;3.63;;;;;;;;;;4913580;29;20035;-67
2022/04/05 13:59:05;;;;;;;21.83;4.38;;;;;;;;;;4914755;29;20064;-67
2022/04/05 14:01:32;;;;;;;20.27;3.08;;;;;;;;;;4914019;29;20498;-67
2022/04/05 14:03:58;;;;;;;16.65;3.75;;;;;;;;;;4915128;29;20044;-67
2022/04/05 14:06:24;;;;;;;18.85;3.03;;;;;;;;;;4913462;29;20032;-67
2022/04/05 14:08:51;;;;;;;18.13;3.10;;;;;;;;;;4915019;29;20064;-67
2022/04/05 14:11:17;;;;;;;20.48;3.35;;;;;;;;;;4912299;29;20036;-67
2022/04/05 14:13:43;;;;;;;33.65;3.58;;;;;;;;;;4914814;29;20440;-67
2022/04/05 14:16:09;;;;;;;26.25;4.57;;;;;;;;;;4913811;29;20058;-67
2022/04/05 14:18:36;;;;;;;16.73;3.17;;;;;;;;;;4916331;29;20059;-67
2022/04/05 14:21:03;;;;;;;16.23;4.07;;;;;;;;;;4915427;29;20071;-67
2022/04/05 14:23:29;;;;;;;13.38;3.40;;;;;;;;;;4916102;29;20040;-67
2022/04/05 14:25:55;;;;;;;25.90;3.40;;;;;;;;;;4915615;29;20086;-67
2022/04/05 14:28:21;;;;;;;19.38;4.10;;;;;;;;;;4915914;29;20032;-67
2022/04/05 14:30:47;;;;;;;19.15;3.47;;;;;;;;;;4915045;29;20020;-67
2022/04/05 14:33:14;;;;;;;12.80;3.10;;;;;;;;;;4913071;29;20040;-67
2022/04/05 14:35:40;;;;;;;18.65;4.38;;;;;;;;;;4914258;29;20070;-67
2022/04/05 14:38:07;;;;;;;27.00;4.50;;;;;;;;;;4915564;29;20032;-68